createdAt,value
2022-10-03T00:02:28.515Z,9.70
2022-10-03T00:05:10.892Z,11.63
2022-10-03T00:08:21.940Z,11.30
2022-10-03T00:11:18.902Z,11.37
2022-10-03T00:14:00.729Z,12.37
2022-10-03T00:16:46.509Z,12.47
2022-10-03T00:19:34.875Z,13.37
2022-10-03T00:22:09.415Z,12.00
2022-10-03T00:24:48.439Z,12.97
2022-10-03T00:27:30.042Z,11.43
2022-10-03T00:30:05.240Z,12.33
2022-10-03T00:33:13.942Z,11.60
2022-10-03T00:36:00.734Z,10.93
2022-10-03T00:39:02.811Z,10.57
2022-10-03T00:41:48.493Z,10.67
2022-10-03T00:44:43.687Z,10.87
2022-10-03T00:47:22.709Z,12.13
2022-10-03T00:50:07.692Z,14.93
2022-10-03T00:52:42.250Z,14.03
2022-10-03T00:55:15.218Z,14.27
2022-10-03T00:57:46.227Z,13.57
2022-10-03T01:00:31.183Z,14.00
2022-10-03T01:03:46.701Z,14.93
2022-10-03T01:06:46.096Z,13.53
2022-10-03T01:09:15.773Z,12.03
2022-10-03T01:12:04.202Z,13.07
2022-10-03T01:14:45.161Z,14.80
2022-10-03T01:17:28.012Z,14.77
2022-10-03T01:20:19.310Z,14.50
2022-10-03T01:22:58.288Z,14.37
2022-10-03T01:25:37.724Z,14.43
2022-10-03T01:28:53.617Z,14.47
2022-10-03T01:31:28.737Z,14.67
2022-10-03T01:34:07.462Z,16.10
2022-10-03T01:37:16.119Z,15.73
2022-10-03T01:40:08.977Z,13.30
2022-10-03T01:42:52.479Z,13.47
2022-10-03T01:45:49.897Z,13.43
2022-10-03T01:48:29.150Z,13.50
2022-10-03T01:51:35.015Z,13.13
2022-10-03T01:54:18.278Z,13.40
2022-10-03T01:57:31.343Z,13.33
2022-10-03T02:00:23.149Z,13.00
2022-10-03T02:03:11.449Z,16.07
2022-10-03T02:06:18.893Z,15.60
2022-10-03T02:08:58.775Z,14.63
2022-10-03T02:11:36.162Z,13.40
2022-10-03T02:14:08.954Z,13.83
2022-10-03T02:16:43.603Z,13.97
2022-10-03T02:19:23.129Z,15.10
2022-10-03T02:21:55.266Z,16.70
2022-10-03T02:24:37.451Z,16.73
2022-10-03T02:27:41.535Z,17.50
2022-10-03T02:30:21.945Z,15.03
2022-10-03T02:33:19.027Z,14.13
2022-10-03T02:36:23.989Z,14.87
2022-10-03T02:39:02.312Z,13.57
2022-10-03T02:41:35.180Z,14.70
2022-10-03T02:44:22.201Z,14.43
2022-10-03T02:47:10.381Z,14.13
2022-10-03T02:49:48.975Z,12.67
2022-10-03T02:52:27.752Z,13.57
2022-10-03T02:55:32.211Z,12.60
2022-10-03T02:58:34.607Z,12.90
2022-10-03T03:01:23.307Z,11.83
2022-10-03T03:04:06.460Z,15.53
2022-10-03T03:07:10.993Z,14.67
2022-10-03T03:09:43.531Z,15.00
2022-10-03T03:12:13.856Z,14.70
2022-10-03T03:14:43.475Z,14.17
2022-10-03T03:17:56.340Z,14.07
2022-10-03T03:20:57.128Z,14.00
2022-10-03T03:23:36.215Z,12.07
2022-10-03T03:26:28.859Z,12.80
2022-10-03T03:29:32.291Z,13.17
2022-10-03T03:32:21.313Z,12.93
2022-10-03T03:35:09.350Z,13.90
2022-10-03T03:38:05.077Z,11.90
2022-10-03T03:41:05.666Z,12.93
2022-10-03T03:43:55.436Z,13.47
2022-10-03T03:46:46.823Z,12.70
2022-10-03T03:49:51.133Z,13.80
2022-10-03T03:52:41.365Z,16.40
2022-10-03T03:55:48.755Z,18.73
2022-10-03T03:58:37.239Z,15.50
2022-10-03T04:01:32.671Z,16.83
2022-10-03T04:04:24.053Z,18.37
2022-10-03T04:07:20.886Z,17.07
2022-10-03T04:09:48.516Z,17.17
2022-10-03T04:12:18.250Z,18.37
2022-10-03T04:15:01.146Z,18.93
2022-10-03T04:17:55.910Z,16.83
2022-10-03T04:20:22.794Z,17.93
2022-10-03T04:23:03.651Z,16.80
2022-10-03T04:25:37.883Z,17.60
2022-10-03T04:28:26.858Z,15.07
2022-10-03T04:31:29.242Z,16.67
2022-10-03T04:34:17.895Z,16.93
2022-10-03T04:37:13.098Z,15.93
2022-10-03T04:39:53.280Z,17.27
2022-10-03T04:42:32.309Z,17.03
2022-10-03T04:45:11.161Z,14.90
2022-10-03T04:47:47.040Z,16.30
2022-10-03T04:50:31.198Z,16.97
2022-10-03T04:53:22.813Z,14.97
2022-10-03T04:56:12.839Z,14.50
2022-10-03T04:58:48.159Z,16.67
2022-10-03T05:01:24.823Z,16.00
2022-10-03T05:03:51.671Z,17.27
2022-10-03T05:06:35.366Z,16.63
2022-10-03T05:09:34.985Z,17.27
2022-10-03T05:12:28.873Z,16.37
2022-10-03T05:15:21.062Z,16.03
2022-10-03T05:18:21.328Z,16.10
2022-10-03T05:21:08.388Z,15.13
2022-10-03T05:24:09.367Z,16.87
2022-10-03T05:26:46.077Z,18.97
2022-10-03T05:29:21.054Z,20.93
2022-10-03T05:31:58.006Z,19.23
2022-10-03T05:34:49.658Z,19.73
2022-10-03T05:37:38.073Z,19.03
2022-10-03T05:40:17.383Z,19.77
2022-10-03T05:42:51.197Z,19.43
2022-10-03T05:45:51.664Z,17.03
2022-10-03T05:48:33.539Z,16.77
2022-10-03T05:51:39.204Z,18.27
2022-10-03T05:54:29.254Z,17.00
2022-10-03T05:57:02.170Z,16.80
2022-10-03T05:59:59.242Z,17.33
2022-10-03T06:03:07.733Z,17.60
2022-10-03T06:05:43.504Z,17.40
2022-10-03T06:08:35.253Z,16.80
2022-10-03T06:11:26.633Z,19.77
2022-10-03T06:14:11.598Z,19.93
2022-10-03T06:16:57.004Z,18.03
2022-10-03T06:19:45.942Z,18.23
2022-10-03T06:22:24.627Z,17.57
2022-10-03T06:25:10.005Z,16.50
2022-10-03T06:28:13.787Z,18.40
2022-10-03T06:30:59.118Z,18.27
2022-10-03T06:33:38.615Z,17.10
2022-10-03T06:36:43.321Z,17.90
2022-10-03T06:39:22.013Z,19.83
2022-10-03T06:42:19.601Z,18.60
2022-10-03T06:44:56.483Z,19.10
2022-10-03T06:47:56.853Z,18.87
2022-10-03T06:50:47.949Z,18.50
2022-10-03T06:53:23.609Z,17.47
2022-10-03T06:56:08.863Z,17.70
2022-10-03T06:58:47.991Z,17.63
2022-10-03T07:01:35.178Z,15.57
2022-10-03T07:04:24.223Z,15.13
2022-10-03T07:07:23.470Z,14.87
2022-10-03T07:10:30.239Z,14.87
2022-10-03T07:13:25.034Z,13.10
2022-10-03T07:16:32.812Z,12.67
2022-10-03T07:19:28.840Z,9.73
2022-10-03T07:22:20.049Z,7.90
2022-10-03T07:25:02.005Z,6.83
2022-10-03T07:27:47.377Z,5.90
2022-10-03T07:30:23.417Z,4.43
2022-10-03T07:33:22.419Z,4.77
2022-10-03T07:36:36.131Z,3.78
2022-10-03T07:39:13.627Z,3.42
2022-10-03T07:42:00.753Z,3.55
2022-10-03T07:44:56.724Z,3.25
2022-10-03T07:47:57.862Z,2.75
2022-10-03T07:50:37.401Z,3.25
2022-10-03T07:53:22.525Z,2.92
2022-10-03T07:56:07.273Z,2.72
2022-10-03T07:58:43.079Z,3.00
2022-10-03T08:01:36.582Z,2.50
2022-10-03T08:04:31.732Z,2.60
2022-10-03T08:07:11.648Z,2.42
2022-10-03T08:10:00.212Z,2.60
2022-10-03T08:12:36.697Z,2.75
2022-10-03T08:15:28.084Z,2.78
2022-10-03T08:18:20.064Z,2.55
2022-10-03T08:20:50.122Z,2.63
2022-10-03T08:23:44.174Z,2.80
2022-10-03T08:26:17.313Z,2.15
2022-10-03T08:28:54.025Z,2.30
2022-10-03T08:31:21.230Z,2.65
2022-10-03T08:34:25.641Z,2.50
2022-10-03T08:36:52.446Z,2.50
2022-10-03T08:39:43.148Z,2.17
2022-10-03T08:42:34.940Z,2.20
2022-10-03T08:45:07.568Z,1.95
2022-10-03T08:47:49.457Z,2.22
2022-10-03T08:50:47.674Z,2.10
2022-10-03T08:53:28.344Z,1.88
2022-10-03T08:56:14.583Z,2.20
2022-10-03T08:58:59.530Z,2.80
2022-10-03T09:01:57.810Z,2.45
2022-10-03T09:05:20.934Z,2.13
2022-10-03T09:08:25.576Z,2.38
2022-10-03T09:11:01.434Z,2.22
2022-10-03T09:13:46.250Z,2.30
2022-10-03T09:16:20.768Z,1.80
2022-10-03T09:22:47.348Z,2.58
2022-10-03T09:25:23.618Z,1.83
2022-10-03T09:28:05.539Z,1.88
2022-10-03T09:33:59.872Z,2.00
2022-10-03T09:40:40.569Z,1.90
2022-10-03T09:43:19.539Z,2.05
2022-10-03T09:45:52.733Z,1.83
2022-10-03T09:48:26.304Z,1.60
2022-10-03T09:51:02.388Z,1.65
2022-10-03T09:53:53.131Z,1.77
2022-10-03T09:56:26.046Z,1.58
2022-10-03T09:59:07.857Z,1.83
2022-10-03T10:01:42.399Z,1.90
2022-10-03T10:04:53.102Z,1.70
2022-10-03T10:07:32.389Z,1.80
2022-10-03T10:10:37.591Z,1.70
2022-10-03T10:13:06.946Z,1.88
2022-10-03T10:16:20.805Z,1.65
2022-10-03T10:19:01.675Z,1.60
2022-10-03T10:21:43.672Z,1.55
2022-10-03T10:24:29.210Z,1.88
2022-10-03T10:27:17.331Z,1.80
2022-10-03T10:29:56.367Z,1.67
2022-10-03T10:33:00.792Z,1.80
2022-10-03T10:35:46.107Z,1.60
2022-10-03T10:38:26.719Z,1.75
2022-10-03T10:41:28.313Z,1.88
2022-10-03T10:44:31.292Z,2.00
2022-10-03T10:47:27.513Z,1.60
2022-10-03T10:50:42.658Z,1.80
2022-10-03T10:53:43.585Z,2.08
2022-10-03T10:56:32.825Z,1.35
2022-10-03T10:59:50.022Z,1.75
2022-10-03T11:02:34.888Z,1.30
2022-10-03T11:05:22.869Z,1.42
2022-10-03T11:07:53.848Z,1.70
2022-10-03T11:11:04.315Z,1.40
2022-10-03T11:14:06.915Z,1.70
2022-10-03T11:17:11.400Z,1.98
2022-10-03T11:20:17.153Z,1.40
2022-10-03T11:23:16.772Z,1.80
2022-10-03T11:26:21.287Z,1.58
2022-10-03T11:29:03.176Z,1.83
2022-10-03T11:31:51.811Z,1.40
2022-10-03T11:35:05.578Z,1.60
2022-10-03T11:37:47.084Z,1.40
2022-10-03T11:40:28.444Z,1.40
2022-10-03T11:43:13.957Z,1.35
2022-10-03T11:46:03.419Z,1.27
2022-10-03T11:48:36.440Z,1.20
2022-10-03T11:51:12.509Z,1.65
2022-10-03T11:53:46.761Z,2.65
2022-10-03T11:57:04.849Z,1.58
2022-10-03T12:00:03.792Z,1.40
2022-10-03T12:02:55.841Z,1.48
2022-10-03T12:05:37.868Z,1.65
2022-10-03T12:08:45.448Z,1.58
2022-10-03T12:11:29.359Z,1.95
2022-10-03T12:14:23.010Z,1.65
2022-10-03T12:17:16.169Z,1.58
2022-10-03T12:19:54.975Z,1.85
2022-10-03T12:22:45.407Z,1.90
2022-10-03T12:25:24.807Z,1.70
2022-10-03T12:28:04.083Z,1.30
2022-10-03T12:30:44.118Z,1.50
2022-10-03T12:33:49.797Z,1.50
2022-10-03T12:36:57.135Z,2.00
2022-10-03T12:39:37.874Z,1.52
2022-10-03T12:42:30.955Z,1.50
2022-10-03T12:45:33.320Z,1.55
2022-10-03T12:48:03.146Z,1.20
2022-10-03T12:50:39.178Z,1.25
2022-10-03T12:53:18.195Z,1.60
2022-10-03T12:56:15.283Z,1.73
2022-10-03T12:59:03.710Z,1.50
2022-10-03T13:02:20.535Z,6.43
2022-10-03T13:05:19.557Z,1.65
2022-10-03T13:07:52.900Z,1.75
2022-10-03T13:10:47.739Z,1.35
2022-10-03T13:13:36.539Z,1.30
2022-10-03T13:16:30.253Z,1.10
2022-10-03T13:19:18.512Z,1.50
2022-10-03T13:22:03.554Z,1.55
2022-10-03T13:24:34.572Z,1.30
2022-10-03T13:27:01.393Z,1.30
2022-10-03T13:29:49.077Z,1.58
2022-10-03T13:32:24.399Z,1.27
2022-10-03T13:35:35.962Z,1.10
2022-10-03T13:38:18.555Z,1.30
2022-10-03T13:41:09.182Z,1.20
2022-10-03T13:43:39.998Z,1.40
2022-10-03T13:46:15.190Z,1.30
2022-10-03T13:48:50.749Z,1.25
2022-10-03T13:51:23.401Z,1.20
2022-10-03T13:54:14.042Z,1.00
2022-10-03T13:57:05.815Z,1.40
2022-10-03T13:59:39.856Z,1.02
2022-10-03T14:02:09.637Z,1.42
2022-10-03T14:04:36.603Z,1.00
2022-10-03T14:07:22.456Z,1.88
2022-10-03T14:10:05.478Z,1.30
2022-10-03T14:13:01.534Z,1.40
2022-10-03T14:15:46.458Z,1.17
2022-10-03T14:18:41.508Z,1.00
2022-10-03T14:21:48.979Z,1.10
2022-10-03T14:24:42.977Z,1.52
2022-10-03T14:27:34.468Z,1.15
2022-10-03T14:30:04.421Z,1.42
2022-10-03T14:32:50.155Z,1.30
2022-10-03T14:35:33.529Z,1.70
2022-10-03T14:38:15.235Z,1.48
2022-10-03T14:40:49.770Z,1.40
2022-10-03T14:43:41.635Z,1.73
2022-10-03T14:46:10.716Z,1.60
2022-10-03T14:48:46.018Z,1.48
2022-10-03T14:51:45.212Z,2.95
2022-10-03T14:54:22.854Z,2.38
2022-10-03T14:56:51.898Z,1.88
2022-10-03T14:59:29.592Z,1.10
2022-10-03T15:01:57.877Z,1.20
2022-10-03T15:04:31.364Z,1.30
2022-10-03T15:07:01.175Z,1.30
2022-10-03T15:09:34.024Z,1.20
2022-10-03T15:12:22.483Z,1.30
2022-10-03T15:15:04.838Z,1.75
2022-10-03T15:17:35.147Z,1.60
2022-10-03T15:20:06.586Z,1.50
2022-10-03T15:22:40.177Z,1.50
2022-10-03T15:25:20.997Z,1.65
2022-10-03T15:27:59.050Z,1.40
2022-10-03T15:30:34.196Z,2.15
2022-10-03T15:33:33.416Z,2.58
2022-10-03T15:36:29.745Z,1.63
2022-10-03T15:39:04.658Z,1.60
2022-10-03T15:41:49.610Z,2.15
2022-10-03T15:44:24.156Z,1.92
2022-10-03T15:46:54.172Z,1.90
2022-10-03T15:50:18.178Z,2.15
2022-10-03T15:52:52.929Z,1.90
2022-10-03T15:55:33.014Z,1.92
2022-10-03T15:58:09.010Z,1.83
2022-10-03T16:00:37.851Z,2.65
2022-10-03T16:03:10.603Z,1.80
2022-10-03T16:05:43.581Z,1.75
2022-10-03T16:08:20.087Z,2.53
2022-10-03T16:11:08.099Z,2.15
2022-10-03T16:13:37.359Z,2.20
2022-10-03T16:16:35.640Z,3.78
2022-10-03T16:19:24.584Z,2.87
2022-10-03T16:22:03.567Z,2.80
2022-10-03T16:24:40.610Z,2.47
2022-10-03T16:27:11.571Z,2.37
2022-10-03T16:29:43.801Z,2.80
2022-10-03T16:32:17.802Z,4.43
2022-10-03T16:34:46.539Z,3.67
2022-10-03T16:37:19.898Z,4.53
2022-10-03T16:40:13.641Z,5.83
2022-10-03T16:42:45.398Z,6.10
2022-10-03T16:45:25.224Z,5.47
2022-10-03T16:48:14.219Z,4.30
2022-10-03T16:50:45.971Z,4.10
2022-10-03T16:53:13.963Z,3.57
2022-10-03T16:56:03.815Z,2.90
2022-10-03T16:58:36.259Z,2.10
2022-10-03T17:01:26.459Z,2.17
2022-10-03T17:04:01.405Z,2.37
2022-10-03T17:06:35.453Z,1.90
2022-10-03T17:09:17.736Z,2.00
2022-10-03T17:11:50.677Z,1.57
2022-10-03T17:14:20.281Z,2.60
2022-10-03T17:16:56.001Z,2.63
2022-10-03T17:19:34.933Z,3.67
2022-10-03T17:22:25.634Z,2.90
2022-10-03T17:25:23.293Z,4.03
2022-10-03T17:27:52.632Z,3.20
2022-10-03T17:30:54.952Z,5.03
2022-10-03T17:33:48.298Z,6.50
2022-10-03T17:36:52.040Z,5.97
2022-10-03T17:39:37.286Z,5.57
2022-10-03T17:42:43.650Z,5.23
2022-10-03T17:45:52.160Z,5.17
2022-10-03T17:48:21.404Z,4.20
2022-10-03T17:51:12.015Z,4.40
2022-10-03T17:53:48.086Z,6.23
2022-10-03T17:56:21.123Z,7.90
2022-10-03T17:59:01.793Z,6.83
2022-10-03T18:01:43.318Z,5.87
2022-10-03T18:04:29.184Z,5.30
2022-10-03T18:07:18.946Z,6.53
2022-10-03T18:09:51.878Z,5.83
2022-10-03T18:12:39.973Z,6.17
2022-10-03T18:15:40.905Z,5.87
2022-10-03T18:18:35.603Z,5.70
2022-10-03T18:21:24.941Z,5.63
2022-10-03T18:23:55.752Z,6.00
2022-10-03T18:26:34.516Z,14.43
2022-10-03T18:29:20.043Z,26.50
2022-10-03T18:31:55.499Z,25.97
2022-10-03T18:34:30.897Z,24.50
2022-10-03T18:37:01.248Z,21.60
2022-10-03T18:39:36.411Z,26.13
2022-10-03T18:42:08.474Z,25.13
2022-10-03T18:44:36.233Z,25.53
2022-10-03T18:47:20.064Z,22.00
2022-10-03T18:50:08.948Z,18.90
2022-10-03T18:53:16.597Z,21.90
2022-10-03T18:55:48.318Z,20.90
2022-10-03T18:58:21.993Z,11.90
2022-10-03T19:01:21.143Z,7.37
2022-10-03T19:03:54.137Z,6.70
2022-10-03T19:06:33.447Z,6.80
2022-10-03T19:09:09.575Z,6.43
2022-10-03T19:11:43.133Z,5.53
2022-10-03T19:14:18.373Z,6.97
2022-10-03T19:17:15.078Z,7.03
2022-10-03T19:19:49.931Z,7.37
2022-10-03T19:22:24.862Z,7.90
2022-10-03T19:24:58.910Z,6.70
2022-10-03T19:27:49.838Z,6.67
2022-10-03T19:30:22.515Z,6.40
2022-10-03T19:32:59.820Z,7.00
2022-10-03T19:35:28.506Z,6.30
2022-10-03T19:38:20.026Z,7.47
2022-10-03T19:41:04.889Z,8.97
2022-10-03T19:43:43.044Z,8.60
2022-10-03T19:46:15.456Z,8.63
2022-10-03T19:49:11.386Z,8.37
2022-10-03T19:51:38.548Z,9.97
2022-10-03T19:54:14.203Z,8.97
2022-10-03T19:56:44.089Z,8.67
2022-10-03T19:59:17.719Z,7.60
2022-10-03T20:01:47.032Z,6.83
2022-10-03T20:04:18.970Z,5.50
2022-10-03T20:06:49.846Z,5.07
2022-10-03T20:09:26.696Z,5.57
2022-10-03T20:12:19.920Z,4.70
2022-10-03T20:14:51.445Z,5.83
2022-10-03T20:17:22.135Z,5.30
2022-10-03T20:20:06.484Z,5.33
2022-10-03T20:22:36.538Z,5.47
2022-10-03T20:25:08.282Z,4.60
2022-10-03T20:27:53.293Z,5.47
2022-10-03T20:30:26.183Z,6.00
2022-10-03T20:32:56.752Z,6.00
2022-10-03T20:35:41.646Z,6.53
2022-10-03T20:38:22.810Z,6.53
2022-10-03T20:40:54.903Z,7.13
2022-10-03T20:43:41.915Z,6.83
2022-10-03T20:46:12.821Z,6.33
2022-10-03T20:48:50.250Z,5.40
2022-10-03T20:51:24.079Z,6.03
2022-10-03T20:53:55.501Z,5.67
2022-10-03T20:56:31.317Z,5.70
2022-10-03T20:59:00.709Z,5.80
2022-10-03T21:01:30.218Z,6.20
2022-10-03T21:04:24.030Z,6.30
2022-10-03T21:06:57.990Z,6.07
2022-10-03T21:09:30.429Z,7.33
2022-10-03T21:11:58.049Z,6.57
2022-10-03T21:14:27.806Z,7.40
2022-10-03T21:16:55.893Z,6.80
2022-10-03T21:19:32.257Z,6.10
2022-10-03T21:22:01.314Z,5.10
2022-10-03T21:24:47.445Z,5.37
2022-10-03T21:27:16.558Z,5.10
2022-10-03T21:30:08.356Z,4.90
2022-10-03T21:33:14.408Z,4.40
2022-10-03T21:35:42.499Z,4.30
2022-10-03T21:38:18.991Z,4.63
2022-10-03T21:40:52.334Z,4.67
2022-10-03T21:43:22.532Z,5.80
2022-10-03T21:45:49.777Z,5.53
2022-10-03T21:48:17.003Z,6.50
2022-10-03T21:50:47.899Z,7.40
2022-10-03T21:53:30.052Z,6.80
2022-10-03T21:55:57.240Z,6.53
2022-10-03T21:58:29.399Z,5.27
2022-10-03T22:01:03.152Z,5.37
2022-10-03T22:03:40.508Z,4.80
2022-10-03T22:06:21.053Z,4.70
2022-10-03T22:08:49.199Z,5.07
2022-10-03T22:14:48.971Z,6.37
2022-10-03T22:17:33.380Z,5.80
2022-10-03T22:20:47.192Z,6.70
2022-10-03T22:23:27.763Z,6.63
2022-10-03T22:25:57.809Z,6.73
2022-10-03T22:28:35.517Z,6.47
2022-10-03T22:31:24.037Z,5.63
2022-10-03T22:33:54.263Z,6.20
2022-10-03T22:36:21.596Z,7.53
2022-10-03T22:38:58.198Z,6.10
2022-10-03T22:41:27.812Z,5.90
2022-10-03T22:43:56.432Z,5.37
2022-10-03T22:46:27.301Z,5.17
2022-10-03T22:49:13.398Z,4.80
2022-10-03T22:51:41.760Z,5.20
2022-10-03T22:54:13.847Z,5.30
2022-10-03T22:56:47.249Z,5.40
2022-10-03T22:59:35.194Z,5.80
2022-10-03T23:02:04.999Z,5.70
2022-10-03T23:04:37.682Z,5.60
2022-10-03T23:07:15.962Z,5.67
2022-10-03T23:09:46.918Z,5.00
2022-10-03T23:12:14.883Z,5.07
2022-10-03T23:14:44.972Z,4.80
2022-10-03T23:17:26.825Z,4.37
2022-10-03T23:20:15.644Z,4.40
2022-10-03T23:26:19.381Z,3.83
2022-10-03T23:29:04.214Z,4.37
2022-10-03T23:31:51.177Z,4.50
2022-10-03T23:34:39.033Z,3.90
2022-10-03T23:37:13.130Z,4.53
2022-10-03T23:40:04.638Z,4.40
2022-10-03T23:42:31.427Z,3.83
2022-10-03T23:45:19.521Z,3.80
2022-10-03T23:48:21.134Z,4.70
2022-10-03T23:50:52.738Z,4.07
2022-10-03T23:53:38.973Z,4.77
2022-10-03T23:56:34.161Z,4.73
2022-10-03T23:59:03.975Z,5.47
